Time;durP1;ratioP1;P1;durP2;ratioP2;P2;SDS_P1;SDS_P2;PMS_P1;PMS_P2;Temp;Humidity;BMP_temperature;BMP_pressure;BME280_temperature;BME280_humidity;BME280_pressure;Samples;Min_cycle;Max_cycle;Signal;HPM_P1;HPM_P2
2022/04/13 00:00:27;;;;;;;10.32;6.90;;;11.50;99.90;;;;;;5134394;28;20051;-27
2022/04/13 00:02:53;;;;;;;11.00;7.10;;;11.50;99.90;;;;;;5117135;28;20084;-27
2022/04/13 00:05:19;;;;;;;9.52;6.72;;;11.50;99.90;;;;;;5134317;28;20047;-27
2022/04/13 00:07:45;;;;;;;9.60;6.57;;;11.60;99.90;;;;;;5134349;28;20552;-27
2022/04/13 00:10:11;;;;;;;9.40;6.38;;;11.60;99.90;;;;;;5116188;28;20047;-27
2022/04/13 00:12:37;;;;;;;11.57;7.25;;;11.60;99.90;;;;;;5116043;28;20084;-27
2022/04/13 00:15:04;;;;;;;14.70;6.72;;;11.70;99.90;;;;;;5134323;28;20499;-27
2022/04/13 00:17:30;;;;;;;12.13;7.07;;;11.70;99.90;;;;;;5134524;28;20121;-28
2022/04/13 00:19:57;;;;;;;9.35;6.88;;;11.70;99.90;;;;;;5135099;28;20090;-27
2022/04/13 00:22:22;;;;;;;9.77;7.15;;;11.70;99.90;;;;;;5134283;28;20047;-27
2022/04/13 00:24:48;;;;;;;14.68;7.90;;;11.60;99.90;;;;;;5116177;28;20054;-27
2022/04/13 00:27:14;;;;;;;9.73;6.97;;;11.50;99.90;;;;;;5134120;28;20127;-27
2022/04/13 00:29:40;;;;;;;10.95;7.93;;;11.40;99.90;;;;;;5116122;28;20050;-27
2022/04/13 00:32:06;;;;;;;10.00;7.20;;;11.30;99.90;;;;;;5116427;28;20055;-27
2022/04/13 00:34:32;;;;;;;11.38;6.85;;;11.10;99.90;;;;;;5116914;28;20045;-28
2022/04/13 00:36:58;;;;;;;11.07;7.30;;;11.10;99.90;;;;;;5134036;28;20129;-27
2022/04/13 00:39:27;;;;;;;11.60;7.07;;;11.00;99.90;;;;;;5136243;27;20097;-27
2022/04/13 00:41:58;;;;;;;11.73;7.00;;;11.00;99.90;;;;;;5137842;27;20074;-27
2022/04/13 00:44:27;;;;;;;12.50;7.30;;;11.00;99.90;;;;;;5137814;27;20377;-27
2022/04/13 00:46:54;;;;;;;11.30;6.85;;;11.00;99.90;;;;;;5119426;27;20085;-27
2022/04/13 00:49:20;;;;;;;16.25;6.70;;;11.10;99.90;;;;;;5120408;27;20054;-27
2022/04/13 00:51:46;;;;;;;12.32;6.93;;;11.20;99.90;;;;;;5137658;27;20047;-27
2022/04/13 00:54:13;;;;;;;10.48;7.20;;;11.30;99.90;;;;;;5137673;27;20050;-27
2022/04/13 00:56:41;;;;;;;9.98;7.18;;;11.30;99.90;;;;;;5138133;27;20358;-27
2022/04/13 00:59:13;;;;;;;9.60;6.88;;;11.30;99.90;;;;;;5102477;27;20047;-27
2022/04/13 01:01:46;;;;;;;9.57;6.97;;;11.30;99.90;;;;;;5119639;27;20047;-27
2022/04/13 01:04:12;;;;;;;;;;;11.40;99.90;;;;;;5120634;27;20047;-27
2022/04/13 01:06:39;;;;;;;10.90;6.78;;;11.40;99.90;;;;;;5137282;27;20295;-27
2022/04/13 01:09:05;;;;;;;11.25;7.72;;;11.40;99.90;;;;;;5137906;27;20068;-27
2022/04/13 01:11:31;;;;;;;12.15;6.97;;;11.40;99.90;;;;;;5119644;27;20043;-27
2022/04/13 01:13:58;;;;;;;12.52;7.82;;;11.40;99.90;;;;;;5118955;27;20438;-27
2022/04/13 01:16:26;;;;;;;16.00;7.38;;;11.30;99.90;;;;;;5137126;27;20059;-27
2022/04/13 01:18:54;;;;;;;13.27;8.05;;;11.30;99.90;;;;;;5137157;27;20055;-27
2022/04/13 01:21:58;;;;;;;11.27;7.15;;;11.20;99.90;;;;;;5136774;27;20474;-27
2022/04/13 01:24:24;;;;;;;11.80;7.72;;;11.20;99.90;;;;;;5137677;27;20062;-27
2022/04/13 01:26:50;;;;;;;11.50;7.45;;;11.20;99.90;;;;;;5136902;27;20161;-27
2022/04/13 01:29:16;;;;;;;11.95;7.75;;;11.20;99.90;;;;;;5136910;27;20083;-27
2022/04/13 01:31:43;;;;;;;11.02;7.57;;;11.20;99.90;;;;;;5136917;27;20129;-27
2022/04/13 01:34:09;;;;;;;13.85;8.35;;;11.20;99.90;;;;;;5118836;27;20096;-27
2022/04/13 01:36:36;;;;;;;11.65;7.63;;;11.20;99.90;;;;;;5137534;27;20407;-27
2022/04/13 01:39:06;;;;;;;10.60;7.95;;;11.20;99.90;;;;;;5137026;27;20039;-27
2022/04/13 01:41:33;;;;;;;13.15;8.70;;;11.20;99.90;;;;;;5118907;27;20099;-27
2022/04/13 01:43:58;;;;;;;15.43;8.90;;;11.10;99.90;;;;;;5118484;27;20050;-27
2022/04/13 01:46:24;;;;;;;11.55;8.57;;;11.10;99.90;;;;;;5119063;27;20039;-27
2022/04/13 01:48:50;;;;;;;15.00;8.93;;;11.00;99.90;;;;;;5118242;27;20515;-27
2022/04/13 01:51:20;;;;;;;12.82;8.73;;;10.90;99.90;;;;;;5136227;27;20176;-27
2022/04/13 01:53:50;;;;;;;13.73;9.63;;;10.90;99.90;;;;;;5118909;27;20079;-27
2022/04/13 01:56:17;;;;;;;12.75;9.02;;;10.90;99.90;;;;;;5136437;27;20039;-28
2022/04/13 01:58:43;;;;;;;12.77;9.18;;;10.90;99.90;;;;;;5136396;27;20051;-27
2022/04/13 02:01:10;;;;;;;12.00;9.35;;;10.80;99.90;;;;;;5118038;27;20519;-27
2022/04/13 02:03:36;;;;;;;14.45;9.85;;;10.80;99.90;;;;;;5137099;27;20397;-27
2022/04/13 02:06:03;;;;;;;12.65;9.80;;;10.90;99.90;;;;;;5136118;27;20077;-27
2022/04/13 02:08:29;;;;;;;15.70;9.43;;;10.80;99.90;;;;;;5136459;27;20054;-27
2022/04/13 02:10:55;;;;;;;15.60;10.73;;;10.80;99.90;;;;;;5136153;27;20404;-27
2022/04/13 02:13:23;;;;;;;15.35;10.75;;;10.80;99.90;;;;;;5117945;27;20039;-27
2022/04/13 02:15:50;;;;;;;21.23;10.85;;;10.80;99.90;;;;;;5118209;27;20043;-27
2022/04/13 02:18:16;;;;;;;16.23;10.25;;;10.70;99.90;;;;;;5117913;27;20058;-27
2022/04/13 02:20:42;;;;;;;14.70;10.75;;;10.80;99.90;;;;;;5100840;27;20047;-27
2022/04/13 02:23:08;;;;;;;17.13;10.85;;;10.80;99.90;;;;;;5136173;27;20051;-27
2022/04/13 02:25:35;;;;;;;14.55;12.38;;;10.80;99.90;;;;;;5135793;27;20043;-27
2022/04/13 02:28:03;;;;;;;16.13;11.07;;;10.80;99.90;;;;;;5101211;27;20389;-27
2022/04/13 02:30:28;;;;;;;18.42;11.93;;;10.80;1.00;;;;;;5135757;27;20047;-27
2022/04/13 02:32:54;;;;;;;19.58;13.15;;;10.90;1.00;;;;;;5136215;27;20051;-27
2022/04/13 02:35:20;;;;;;;16.08;12.05;;;10.90;1.00;;;;;;5135625;27;20044;-26
2022/04/13 02:37:46;;;;;;;18.75;12.55;;;10.90;1.00;;;;;;5136097;27;20055;-27
2022/04/13 02:40:13;;;;;;;18.45;13.25;;;10.90;1.00;;;;;;5136110;27;20161;-27
2022/04/13 02:42:39;;;;;;;22.25;14.43;;;10.80;1.00;;;;;;5135484;27;20043;-27
2022/04/13 02:45:06;;;;;;;21.77;14.13;;;10.80;1.00;;;;;;5135434;27;20103;-27
2022/04/13 02:47:32;;;;;;;22.30;14.20;;;10.80;1.00;;;;;;5136194;27;20373;-26
2022/04/13 02:50:00;;;;;;;20.80;14.45;;;10.90;1.00;;;;;;5136214;27;20445;-27
2022/04/13 02:52:28;;;;;;;21.88;14.45;;;11.00;1.00;;;;;;5135341;27;20039;-26
2022/04/13 02:54:57;;;;;;;18.33;13.80;;;11.10;1.00;;;;;;5135316;27;20043;-27
2022/04/13 02:57:22;;;;;;;20.52;12.85;;;11.20;1.00;;;;;;5135554;27;20050;-26
2022/04/13 02:59:49;;;;;;;19.05;12.20;;;11.30;1.00;;;;;;5135243;27;20047;-27
2022/04/13 03:02:19;;;;;;;25.55;12.85;;;11.40;1.00;;;;;;5134943;27;20043;-27
2022/04/13 03:04:46;;;;;;;32.35;13.27;;;11.50;99.90;;;;;;5135093;27;20058;-27
2022/04/13 03:07:14;;;;;;;20.65;13.27;;;11.60;99.90;;;;;;5099777;27;20157;-27
2022/04/13 03:09:40;;;;;;;21.20;13.85;;;11.70;99.90;;;;;;5135359;27;20499;-26
2022/04/13 03:12:08;;;;;;;23.08;13.80;;;11.70;99.90;;;;;;5135009;27;20051;-27
2022/04/13 03:14:35;;;;;;;26.60;14.45;;;11.70;99.90;;;;;;5134961;27;20047;-27
2022/04/13 03:17:01;;;;;;;25.83;14.35;;;11.70;99.90;;;;;;5100228;27;20184;-27
2022/04/13 03:19:27;;;;;;;22.27;12.98;;;11.60;99.90;;;;;;5100074;27;20507;-27
2022/04/13 03:21:54;;;;;;;22.98;13.70;;;11.60;99.90;;;;;;5134826;27;20043;-28
2022/04/13 03:24:21;;;;;;;20.33;13.07;;;11.60;99.90;;;;;;5134812;27;20051;-27
2022/04/13 03:26:48;;;;;;;23.55;14.27;;;11.50;99.90;;;;;;5116516;28;20054;-27
2022/04/13 03:29:14;;;;;;;20.23;13.98;;;11.50;1.00;;;;;;5116657;28;20043;-27
2022/04/13 03:31:40;;;;;;;18.45;13.27;;;11.40;1.00;;;;;;5134787;27;20493;-27
2022/04/13 03:34:05;;;;;;;24.45;13.98;;;11.30;1.00;;;;;;5134688;27;20519;-27
2022/04/13 03:36:32;;;;;;;24.05;14.88;;;11.20;1.00;;;;;;5134633;27;20039;-26
2022/04/13 03:38:58;;;;;;;25.42;15.88;;;11.00;1.00;;;;;;5116735;28;20083;-27
2022/04/13 03:41:24;;;;;;;23.83;14.32;;;10.90;1.00;;;;;;5134589;28;20091;-27
2022/04/13 03:43:49;;;;;;;25.67;14.77;;;10.80;1.00;;;;;;5134600;28;20051;-27
2022/04/13 03:46:15;;;;;;;20.95;15.13;;;10.70;1.00;;;;;;5116838;28;20480;-27
2022/04/13 03:48:41;;;;;;;23.60;16.10;;;10.60;1.00;;;;;;5134621;28;20163;-26
2022/04/13 03:51:07;;;;;;;24.30;16.55;;;10.60;1.00;;;;;;5134236;28;20204;-26
2022/04/13 03:53:32;;;;;;;25.00;16.98;;;10.50;1.00;;;;;;5134825;28;20047;-26
2022/04/13 03:55:58;;;;;;;25.55;16.58;;;10.40;1.00;;;;;;5099511;28;20047;-26
2022/04/13 03:58:25;;;;;;;23.23;15.50;;;10.40;1.00;;;;;;5135019;28;20136;-26
2022/04/13 04:00:51;;;;;;;27.63;16.83;;;10.30;1.00;;;;;;5116960;28;20468;-27
2022/04/13 04:03:17;;;;;;;24.35;16.35;;;10.30;1.00;;;;;;5134465;28;20172;-27
2022/04/13 04:05:43;;;;;;;27.67;17.90;;;10.30;1.00;;;;;;5116008;28;20404;-27
2022/04/13 04:08:08;;;;;;;26.65;17.08;;;10.30;1.00;;;;;;5116549;28;20108;-27
2022/04/13 04:10:34;;;;;;;28.73;18.10;;;10.30;1.00;;;;;;5099597;28;20137;-27
2022/04/13 04:13:00;;;;;;;30.05;17.02;;;10.30;1.00;;;;;;5134391;27;20043;-26
2022/04/13 04:15:26;;;;;;;26.52;17.35;;;10.20;1.00;;;;;;5137720;27;20078;-26
2022/04/13 04:17:51;;;;;;;25.05;17.25;;;10.30;1.00;;;;;;5138141;27;20441;-27
2022/04/13 04:20:17;;;;;;;24.80;16.98;;;10.20;1.00;;;;;;5138324;27;20054;-27
2022/04/13 04:22:43;;;;;;;26.20;17.48;;;10.20;1.00;;;;;;5138268;27;20072;-27
2022/04/13 04:25:09;;;;;;;21.63;16.45;;;10.20;1.00;;;;;;5138262;27;20047;-27
2022/04/13 04:27:35;;;;;;;23.05;16.55;;;10.20;1.00;;;;;;5138151;27;20043;-27
2022/04/13 04:30:01;;;;;;;27.27;17.80;;;10.20;1.00;;;;;;5138124;27;20492;-26
2022/04/13 04:32:27;;;;;;;26.00;17.70;;;10.20;1.00;;;;;;5119985;27;20051;-27
2022/04/13 04:34:53;;;;;;;28.70;17.60;;;10.20;1.00;;;;;;5119758;27;20047;-26
2022/04/13 04:37:18;;;;;;;26.50;17.58;;;10.20;1.00;;;;;;5137853;27;20396;-27
2022/04/13 04:39:44;;;;;;;24.90;17.33;;;10.20;1.00;;;;;;5138461;27;20050;-27
2022/04/13 04:42:10;;;;;;;30.92;17.20;;;10.20;1.00;;;;;;5120008;27;20079;-26
2022/04/13 04:44:36;;;;;;;29.75;18.10;;;10.20;3.70;;;;;;5138659;27;20047;-27
2022/04/13 04:47:03;;;;;;;23.95;17.38;;;10.20;17.60;;;;;;5119341;27;20066;-27
2022/04/13 04:49:29;;;;;;;24.20;16.80;;;10.10;27.40;;;;;;5137744;27;20454;-26
2022/04/13 04:51:55;;;;;;;27.58;16.73;;;10.10;32.70;;;;;;5137588;27;20051;-27
2022/04/13 04:54:21;;;;;;;28.63;17.48;;;10.10;45.40;;;;;;5119194;27;20043;-27
2022/04/13 04:56:46;;;;;;;28.00;17.92;;;10.10;57.90;;;;;;5137439;27;20480;-26
2022/04/13 04:59:15;;;;;;;26.88;18.52;;;10.00;84.20;;;;;;5137487;27;20468;-27
2022/04/13 05:01:43;;;;;;;28.00;17.58;;;10.10;93.40;;;;;;5102281;27;20083;-26
2022/04/13 05:04:09;;;;;;;27.92;17.42;;;10.10;99.90;;;;;;5119194;27;20047;-27
2022/04/13 05:06:35;;;;;;;24.73;17.83;;;10.10;99.90;;;;;;5118991;27;20515;-27
2022/04/13 05:09:01;;;;;;;27.35;17.20;;;10.10;99.90;;;;;;5119592;27;20069;-26
2022/04/13 05:11:26;;;;;;;23.40;17.20;;;10.20;99.90;;;;;;5119063;27;20377;-27
2022/04/13 05:13:52;;;;;;;24.25;16.73;;;10.20;99.90;;;;;;5137401;27;20047;-27
2022/04/13 05:16:19;;;;;;;25.90;17.23;;;10.30;99.90;;;;;;5118805;27;20068;-27
2022/04/13 05:18:46;;;;;;;26.58;17.52;;;10.30;99.90;;;;;;5137115;27;20154;-27
2022/04/13 05:21:13;;;;;;;24.38;17.05;;;10.40;99.90;;;;;;5137028;27;20039;-27
2022/04/13 05:23:42;;;;;;;24.58;16.65;;;10.40;99.90;;;;;;5102846;27;20054;-27
2022/04/13 05:26:08;;;;;;;28.25;18.58;;;10.40;99.90;;;;;;5118588;27;20485;-27
2022/04/13 05:28:34;;;;;;;29.20;17.42;;;10.40;99.90;;;;;;5136857;27;20043;-27
2022/04/13 05:31:00;;;;;;;29.15;18.13;;;10.50;99.90;;;;;;5136430;27;20102;-27
2022/04/13 05:33:26;;;;;;;28.30;16.60;;;10.50;99.90;;;;;;5137213;27;20047;-27
2022/04/13 05:35:51;;;;;;;27.40;17.80;;;10.60;99.90;;;;;;5136633;27;20095;-27
2022/04/13 05:38:18;;;;;;;25.75;17.00;;;10.70;99.90;;;;;;5136692;27;20481;-26
2022/04/13 05:40:44;;;;;;;27.50;16.80;;;10.70;99.90;;;;;;5136654;27;20129;-27
2022/04/13 05:43:10;;;;;;;24.73;16.60;;;10.80;99.90;;;;;;5137418;27;20128;-27
2022/04/13 05:45:36;;;;;;;29.92;16.95;;;10.80;99.90;;;;;;5118089;27;20050;-27
2022/04/13 05:48:02;;;;;;;35.13;17.40;;;10.80;99.90;;;;;;5101627;27;20043;-27
2022/04/13 05:50:28;;;;;;;26.92;18.30;;;10.90;99.90;;;;;;5136507;27;20047;-27
2022/04/13 05:52:53;;;;;;;27.75;17.25;;;10.90;99.90;;;;;;5101200;27;20046;-27
2022/04/13 05:55:19;;;;;;;24.75;16.15;;;11.10;99.90;;;;;;5136093;27;20126;-27
2022/04/13 05:57:45;;;;;;;29.25;16.83;;;11.20;99.90;;;;;;5118147;27;20040;-27
2022/04/13 06:00:12;;;;;;;27.95;17.65;;;11.30;99.90;;;;;;5136842;27;20122;-27
2022/04/13 06:02:39;;;;;;;28.58;16.40;;;11.40;99.90;;;;;;5136199;27;20400;-27
2022/04/13 06:05:06;;;;;;;25.90;17.50;;;11.40;99.90;;;;;;5118674;27;20437;-27
2022/04/13 06:07:32;;;;;;;28.10;18.58;;;11.40;99.90;;;;;;5136031;27;20043;-27
2022/04/13 06:10:02;;;;;;;24.25;17.30;;;11.50;99.90;;;;;;5136662;27;20047;-27
2022/04/13 06:12:29;;;;;;;30.60;18.17;;;11.60;99.90;;;;;;5136547;27;20109;-27
2022/04/13 06:15:08;;;;;;;34.03;19.25;;;11.60;99.90;;;;;;5135963;27;20047;-27
2022/04/13 06:17:35;;;;;;;26.45;17.85;;;11.70;99.90;;;;;;5117062;27;20519;-27
2022/04/13 06:20:02;;;;;;;31.08;19.27;;;11.80;99.90;;;;;;5135835;27;20054;-27
2022/04/13 06:22:32;;;;;;;30.58;18.27;;;11.90;99.90;;;;;;5117945;27;20139;-27
2022/04/13 06:24:57;;;;;;;26.48;18.45;;;12.00;99.90;;;;;;5117965;27;20047;-27
2022/04/13 06:27:23;;;;;;;30.88;18.65;;;12.00;99.90;;;;;;5117379;27;20047;-27
2022/04/13 06:29:49;;;;;;;30.83;18.40;;;12.00;99.90;;;;;;5100443;27;20575;-27
2022/04/13 06:32:17;;;;;;;28.45;18.58;;;12.20;99.90;;;;;;5135582;27;20381;-27
2022/04/13 06:34:43;;;;;;;32.35;18.50;;;12.20;99.90;;;;;;5135823;27;20051;-27
2022/04/13 06:37:09;;;;;;;25.17;17.25;;;12.30;99.90;;;;;;5116799;27;20434;-27
2022/04/13 06:39:34;;;;;;;27.58;17.25;;;12.50;99.90;;;;;;5135406;27;20065;-27
2022/04/13 06:42:00;;;;;;;25.92;16.65;;;12.60;99.90;;;;;;5135967;27;20039;-27
2022/04/13 06:44:27;;;;;;;25.98;16.90;;;12.70;99.90;;;;;;5117134;27;20050;-27
2022/04/13 06:46:53;;;;;;;28.92;16.83;;;12.80;99.90;;;;;;5116847;27;20043;-27
2022/04/13 06:49:19;;;;;;;22.83;15.25;;;12.80;99.90;;;;;;5117764;27;20430;-27
2022/04/13 06:51:45;;;;;;;28.17;17.33;;;12.80;99.90;;;;;;5116962;27;20043;-27
2022/04/13 06:54:11;;;;;;;24.10;16.48;;;12.80;99.90;;;;;;5135138;27;20134;-27
2022/04/13 06:56:39;;;;;;;27.58;16.10;;;12.80;99.90;;;;;;5116855;27;20046;-28
2022/04/13 06:59:05;;;;;;;31.70;18.45;;;12.90;99.90;;;;;;5117314;27;20039;-27
2022/04/13 07:01:31;;;;;;;25.23;17.05;;;12.90;99.90;;;;;;5135040;27;20051;-27
2022/04/13 07:03:57;;;;;;;25.10;16.63;;;13.00;99.90;;;;;;5135019;27;20196;-27
2022/04/13 07:06:23;;;;;;;27.60;18.67;;;13.00;99.90;;;;;;5100043;27;20054;-27
2022/04/13 07:08:48;;;;;;;28.77;16.98;;;13.00;99.90;;;;;;5135708;27;20051;-27
2022/04/13 07:11:14;;;;;;;29.95;17.55;;;13.00;99.90;;;;;;5135414;27;20358;-27
2022/04/13 07:13:40;;;;;;;32.10;16.30;;;13.10;99.90;;;;;;5134989;27;20046;-27
2022/04/13 07:16:06;;;;;;;22.95;13.60;;;13.20;99.90;;;;;;5134825;27;20508;-27
2022/04/13 07:18:32;;;;;;;21.48;15.57;;;13.20;99.90;;;;;;5116502;27;20051;-27
2022/04/13 07:20:58;;;;;;;21.73;15.07;;;13.30;99.90;;;;;;5116632;27;20062;-28
2022/04/13 07:23:24;;;;;;;27.40;14.82;;;13.40;99.90;;;;;;5134744;27;20039;-27
2022/04/13 07:25:50;;;;;;;20.80;13.15;;;13.40;99.90;;;;;;5099619;27;20039;-27
2022/04/13 07:28:16;;;;;;;22.25;14.23;;;13.60;99.90;;;;;;5116532;27;20134;-27
2022/04/13 07:30:41;;;;;;;22.35;12.88;;;13.60;99.90;;;;;;5134727;27;20126;-27
2022/04/13 07:33:07;;;;;;;21.70;12.77;;;13.50;99.90;;;;;;5117111;28;20162;-27
2022/04/13 07:35:33;;;;;;;21.63;12.93;;;13.40;99.90;;;;;;5116418;27;20039;-27
2022/04/13 07:37:59;;;;;;;24.08;13.07;;;13.40;99.90;;;;;;5116219;28;20400;-27
2022/04/13 07:40:25;;;;;;;22.23;12.90;;;13.50;99.90;;;;;;5135357;27;20103;-28
2022/04/13 07:42:50;;;;;;;17.95;12.82;;;13.50;99.90;;;;;;5134531;28;20047;-27
2022/04/13 07:45:16;;;;;;;23.90;11.82;;;13.50;99.90;;;;;;5134201;28;20547;-27
2022/04/13 07:47:42;;;;;;;23.60;12.93;;;13.50;99.90;;;;;;5099961;27;20047;-27
2022/04/13 07:50:12;;;;;;;21.27;13.45;;;13.50;99.90;;;;;;5118962;27;20100;-27
2022/04/13 07:52:40;;;;;;;23.10;14.25;;;13.50;99.90;;;;;;5138747;27;20408;-27
2022/04/13 07:55:07;;;;;;;20.55;11.80;;;13.50;99.90;;;;;;5103847;27;20085;-27
2022/04/13 07:57:33;;;;;;;19.13;12.15;;;13.60;99.90;;;;;;5138646;27;20048;-27
2022/04/13 07:59:58;;;;;;;22.58;13.20;;;13.50;99.90;;;;;;5138576;27;20047;-27
2022/04/13 08:02:24;;;;;;;20.05;12.23;;;13.50;99.90;;;;;;5120875;27;20035;-27
2022/04/13 08:04:50;;;;;;;17.67;11.98;;;13.50;99.90;;;;;;5103940;27;20050;-27
2022/04/13 08:07:16;;;;;;;24.02;13.23;;;13.60;99.90;;;;;;5138452;27;20061;-27
2022/04/13 08:09:42;;;;;;;22.30;12.48;;;13.80;99.90;;;;;;5138924;27;20047;-27
2022/04/13 08:12:08;;;;;;;18.77;12.02;;;14.00;99.90;;;;;;5138884;27;20043;-27
2022/04/13 08:14:34;;;;;;;17.42;11.80;;;14.20;19.80;;;;;;5103241;27;20133;-28
2022/04/13 08:17:03;;;;;;;22.45;12.68;;;14.40;47.70;;;;;;5138311;27;20126;-27
2022/04/13 08:19:30;;;;;;;20.15;12.15;;;14.60;63.80;;;;;;5119888;27;20142;-27
2022/04/13 08:21:56;;;;;;;21.23;11.27;;;14.70;1.00;;;;;;5138196;27;20065;-27
2022/04/13 08:24:22;;;;;;;18.02;12.95;;;14.60;1.00;;;;;;5119976;27;20048;-27
2022/04/13 08:26:48;;;;;;;17.55;11.07;;;14.70;1.00;;;;;;5138067;27;20050;-27
2022/04/13 08:29:14;;;;;;;19.92;12.13;;;14.90;1.00;;;;;;5138305;27;20065;-28
2022/04/13 08:31:39;;;;;;;20.13;11.15;;;15.00;1.00;;;;;;5120358;27;20051;-27
2022/04/13 08:34:05;;;;;;;17.15;10.75;;;15.00;1.00;;;;;;5137994;27;20396;-27
2022/04/13 08:36:31;;;;;;;16.83;10.43;;;15.20;1.00;;;;;;5138353;27;20046;-27
2022/04/13 08:38:57;;;;;;;12.52;8.07;;;15.40;1.00;;;;;;5119599;27;20043;-27
2022/04/13 08:41:50;;;;;;;15.80;9.65;;;15.40;99.90;;;;;;5119667;27;20071;-27
2022/04/13 08:44:23;;;;;;;18.55;8.65;;;15.40;99.90;;;;;;5137864;27;20043;-27
2022/04/13 08:46:55;;;;;;;15.23;9.75;;;15.30;99.90;;;;;;5119177;27;20066;-26
2022/04/13 08:49:22;;;;;;;16.30;9.75;;;15.50;99.90;;;;;;5138320;27;20047;-27
2022/04/13 08:51:54;;;;;;;20.30;9.60;;;15.60;99.90;;;;;;5138036;27;20047;-27
2022/04/13 08:54:23;;;;;;;15.18;8.10;;;15.50;99.90;;;;;;5119497;27;20422;-27
2022/04/13 08:56:50;;;;;;;17.38;9.25;;;15.40;99.90;;;;;;5119366;27;20481;-27
2022/04/13 08:59:30;;;;;;;15.70;7.80;;;15.40;99.90;;;;;;5137422;27;20122;-27
2022/04/13 09:02:30;;;;;;;14.82;8.43;;;15.30;99.90;;;;;;5138191;27;20061;-27
2022/04/13 09:04:59;;;;;;;15.50;9.13;;;15.10;99.90;;;;;;5118188;27;20047;-27
2022/04/13 09:07:30;;;;;;;17.25;9.23;;;15.10;99.90;;;;;;5116734;28;20043;-27
2022/04/13 09:10:00;;;;;;;15.55;8.57;;;15.10;99.90;;;;;;5117292;28;20047;-27
2022/04/13 09:12:30;;;;;;;14.48;8.52;;;15.40;99.90;;;;;;5116630;28;20051;-27
2022/04/13 09:14:58;;;;;;;14.10;8.13;;;15.80;99.90;;;;;;5117470;28;20128;-27
2022/04/13 09:17:29;;;;;;;17.20;9.00;;;16.10;99.90;;;;;;5116567;28;20043;-27
2022/04/13 09:19:59;;;;;;;13.18;7.82;;;16.40;99.90;;;;;;5117854;28;20373;-27
2022/04/13 09:22:26;;;;;;;15.73;8.07;;;17.00;99.90;;;;;;5098236;28;20047;-27
2022/04/13 09:24:52;;;;;;;19.88;9.98;;;17.10;99.90;;;;;;5116635;28;20055;-27
2022/04/13 09:27:20;;;;;;;18.65;9.95;;;17.40;99.90;;;;;;5098934;28;20093;-27
2022/04/13 09:29:47;;;;;;;15.90;7.93;;;17.50;99.90;;;;;;5099204;28;20089;-27
2022/04/13 09:32:14;;;;;;;23.10;10.70;;;17.20;99.90;;;;;;5116266;28;20122;-27
2022/04/13 09:34:40;;;;;;;15.45;8.57;;;17.40;99.90;;;;;;5097940;28;20043;-27
2022/04/13 09:37:06;;;;;;;13.23;7.93;;;17.40;99.90;;;;;;5098356;28;20126;-27
2022/04/13 09:39:33;;;;;;;11.95;7.53;;;17.60;99.90;;;;;;5116174;28;20043;-27
2022/04/13 09:42:03;;;;;;;11.40;6.90;;;17.70;51.00;;;;;;5116377;28;20494;-27
2022/04/13 09:44:30;;;;;;;12.65;7.65;;;17.60;1.00;;;;;;5097871;28;20071;-27
2022/04/13 09:47:09;;;;;;;15.77;8.60;;;17.40;30.20;;;;;;5081876;28;20054;-27
2022/04/13 09:49:35;;;;;;;12.70;7.32;;;17.60;1.00;;;;;;5098006;28;20051;-27
2022/04/13 09:52:01;;;;;;;13.38;8.15;;;17.90;29.40;;;;;;5115657;28;20516;-27
2022/04/13 09:54:27;;;;;;;15.52;8.60;;;17.90;86.90;;;;;;5097709;28;20079;-27
2022/04/13 09:56:53;;;;;;;12.38;6.97;;;17.80;56.00;;;;;;5080800;28;20093;-27
2022/04/13 09:59:30;;;;;;;12.25;6.75;;;17.80;1.00;;;;;;5097320;28;20047;-27
2022/04/13 10:01:57;;;;;;;12.63;7.00;;;17.80;1.00;;;;;;5116309;28;20101;-27
2022/04/13 10:04:30;;;;;;;12.45;6.05;;;17.60;4.20;;;;;;5097217;28;20101;-27
2022/04/13 10:07:18;;;;;;;10.27;5.97;;;17.60;1.00;;;;;;5110815;27;20043;-27
2022/04/13 10:09:44;;;;;;;12.48;6.53;;;17.70;1.00;;;;;;5118020;27;20092;-27
2022/04/13 10:12:10;;;;;;;7.72;5.25;;;18.00;1.00;;;;;;5135062;27;20043;-27
2022/04/13 10:14:36;;;;;;;13.52;7.32;;;18.00;1.00;;;;;;5117700;27;20058;-27
2022/04/13 10:17:09;;;;;;;9.52;6.18;;;18.20;1.00;;;;;;5092767;28;20446;-27
2022/04/13 10:19:38;;;;;;;12.32;6.03;;;18.50;1.00;;;;;;5129220;27;20126;-27
2022/04/13 10:22:04;;;;;;;7.82;5.30;;;18.60;1.00;;;;;;5117804;27;20110;-27
2022/04/13 10:24:32;;;;;;;9.93;5.93;;;18.30;1.00;;;;;;5118554;27;20423;-27
2022/04/13 10:27:18;;;;;;;12.05;5.38;;;17.90;1.00;;;;;;5117511;27;20036;-27
2022/04/13 10:29:48;;;;;;;7.88;4.28;;;17.30;1.00;;;;;;5114876;28;20493;-27
2022/04/13 10:32:18;;;;;;;12.95;6.72;;;17.40;34.70;;;;;;5112758;27;20119;-27
2022/04/13 10:34:52;;;;;;;10.63;5.20;;;17.90;1.00;;;;;;5136033;27;20434;-27
2022/04/13 10:37:20;;;;;;;9.98;4.93;;;18.20;1.00;;;;;;5100774;27;20087;-27
2022/04/13 10:39:47;;;;;;;12.18;5.60;;;18.30;1.00;;;;;;5114756;27;20039;-27
2022/04/13 10:42:14;;;;;;;18.08;7.95;;;18.60;1.00;;;;;;5133290;27;20107;-27
2022/04/13 10:44:53;;;;;;;11.38;5.15;;;18.90;1.00;;;;;;5095448;28;20520;-27
2022/04/13 10:47:30;;;;;;;10.93;5.30;;;18.40;1.00;;;;;;5133381;27;20049;-27
2022/04/13 10:50:02;;;;;;;11.30;5.20;;;17.90;1.00;;;;;;5133471;27;20047;-27
2022/04/13 10:52:32;;;;;;;9.13;4.55;;;17.70;1.00;;;;;;5132034;27;20036;-28
2022/04/13 10:55:04;;;;;;;10.45;5.20;;;17.80;1.00;;;;;;5132247;27;20091;-27
2022/04/13 10:57:40;;;;;;;8.68;4.32;;;18.00;1.00;;;;;;5126256;27;20058;-27
2022/04/13 11:00:10;;;;;;;7.78;4.40;;;18.20;1.00;;;;;;5114603;28;20044;-27
2022/04/13 11:02:50;;;;;;;7.70;4.40;;;18.00;1.00;;;;;;5100764;28;20506;-27
2022/04/13 11:05:17;;;;;;;10.82;4.40;;;17.80;1.00;;;;;;5119104;27;20035;-27
2022/04/13 11:07:44;;;;;;;8.25;4.90;;;17.70;1.00;;;;;;5108000;27;20153;-28
2022/04/13 11:10:22;;;;;;;10.98;4.82;;;17.80;1.00;;;;;;5132019;27;20047;-28
2022/04/13 11:12:51;;;;;;;11.48;4.68;;;17.60;1.00;;;;;;5129078;27;20043;-27
2022/04/13 11:15:20;;;;;;;9.20;4.40;;;17.40;1.00;;;;;;5109466;27;20050;-27
2022/04/13 11:17:46;;;;;;;9.35;4.63;;;17.10;1.00;;;;;;5129261;27;20062;-28
2022/04/13 11:20:24;;;;;;;12.10;5.38;;;16.90;84.10;;;;;;5130589;27;20042;-27
2022/04/13 11:23:17;;;;;;;11.43;6.60;;;16.70;91.70;;;;;;5113242;27;20046;-27
2022/04/13 11:25:53;;;;;;;8.68;4.80;;;16.60;71.90;;;;;;5117457;27;20047;-27
2022/04/13 11:28:31;;;;;;;11.65;4.40;;;16.60;94.00;;;;;;5115798;27;20050;-27
2022/04/13 11:31:12;;;;;;;11.55;4.38;;;16.70;83.00;;;;;;5133008;27;20043;-27
2022/04/13 11:33:52;;;;;;;11.50;4.75;;;17.10;25.20;;;;;;5135287;27;20047;-27
2022/04/13 11:36:23;;;;;;;9.43;4.50;;;17.10;1.00;;;;;;5134783;27;20098;-27
2022/04/13 11:38:50;;;;;;;10.32;4.07;;;17.00;13.90;;;;;;5120117;28;20115;-27
2022/04/13 11:41:17;;;;;;;11.95;4.68;;;16.90;15.40;;;;;;5115055;28;20063;-27
2022/04/13 11:43:48;;;;;;;11.98;3.53;;;16.70;28.60;;;;;;5113993;28;20092;-28
2022/04/13 11:46:37;;;;;;;10.25;3.90;;;16.30;83.90;;;;;;5096876;28;20075;-28
2022/04/13 11:49:11;;;;;;;12.90;5.60;;;16.30;99.90;;;;;;5110967;28;20058;-27
2022/04/13 11:51:37;;;;;;;13.20;5.38;;;16.30;99.90;;;;;;5114538;28;20103;-27
2022/04/13 11:54:07;;;;;;;7.35;2.80;;;16.10;99.90;;;;;;5115654;28;20051;-27
2022/04/13 11:56:35;;;;;;;14.45;5.20;;;15.90;99.90;;;;;;5134932;28;20388;-27
2022/04/13 11:59:01;;;;;;;12.88;5.22;;;16.00;99.90;;;;;;5099759;28;20500;-27
2022/04/13 12:01:27;;;;;;;11.43;4.53;;;16.10;99.90;;;;;;5096654;28;20054;-27
2022/04/13 12:03:56;;;;;;;15.73;5.38;;;16.10;99.90;;;;;;5115998;28;20044;-27
2022/04/13 12:06:24;;;;;;;13.32;4.75;;;16.00;99.90;;;;;;5105795;28;20400;-27
2022/04/13 12:08:59;;;;;;;11.88;4.32;;;15.90;99.90;;;;;;5108084;28;21167;-27
2022/04/13 12:11:46;;;;;;;11.50;5.43;;;15.90;99.90;;;;;;5116973;28;20183;-28
2022/04/13 12:14:38;;;;;;;10.30;5.07;;;15.90;99.90;;;;;;5116966;28;20058;-27
2022/04/13 12:17:05;;;;;;;15.32;5.40;;;15.70;99.90;;;;;;5134271;28;20129;-27
2022/04/13 12:19:40;;;;;;;11.38;5.25;;;15.70;99.90;;;;;;5133402;28;20074;-28
2022/04/13 12:22:19;;;;;;;11.98;4.90;;;15.60;99.90;;;;;;5132717;28;20044;-27
2022/04/13 12:25:03;;;;;;;15.13;4.68;;;15.50;99.90;;;;;;5116683;28;20043;-27
2022/04/13 12:27:31;;;;;;;13.43;4.88;;;15.40;99.90;;;;;;5113837;28;20052;-27
2022/04/13 12:30:17;;;;;;;12.35;5.18;;;15.30;99.90;;;;;;5095390;28;20393;-27
2022/04/13 12:32:47;;;;;;;17.23;5.55;;;15.40;99.90;;;;;;5119586;28;20096;-27
2022/04/13 12:35:14;;;;;;;14.63;6.28;;;15.40;99.90;;;;;;5107038;27;20074;-27
2022/04/13 12:37:55;;;;;;;12.90;5.45;;;15.30;99.90;;;;;;5117165;28;20126;-27
2022/04/13 12:40:28;;;;;;;13.10;5.20;;;15.30;99.90;;;;;;5132443;27;20107;-27